Terminal Aerodrome Forecast
Issued by NWS

Home | Current Version | Previous Version | Text Only | Print | Product List | Glossary On
Versions: 1 2 3 4 5 6 7 8 9 10 11 12 13 14 15 16 17
000
FTUS44 KLZK 241100
TAFPBF
TAF
KPBF 241139Z 2412/2512 15003KT P6SM OVC250
     FM241400 19008KT P6SM SCT040 SCT250
     FM241900 20016G26KT P6SM VCSH SCT040 OVC080
      TEMPO 2419/2423 5SM TSRA BR OVC030CB
     FM250300 25013G23KT P6SM SCT040=

USA.gov is the U.S. government's official web portal to all federal, state and local government web resources and services.